Time;durP1;ratioP1;P1;durP2;ratioP2;P2;SDS_P1;SDS_P2;PMS_P1;PMS_P2;Temp;Humidity;BMP_temperature;BMP_pressure;BME280_temperature;BME280_humidity;BME280_pressure;Samples;Min_cycle;Max_cycle;Signal;HPM_P1;HPM_P2
2023/11/06 00:01:16;;;;;;;10.88;3.25;;;9.00;99.90;;;;;;5125920;28;20024;-52
2023/11/06 00:03:41;;;;;;;15.32;4.00;;;9.00;99.90;;;;;;5126060;28;20019;-51
2023/11/06 00:06:08;;;;;;;11.07;3.00;;;9.00;99.90;;;;;;5125747;28;20038;-49
2023/11/06 00:08:33;;;;;;;19.05;4.15;;;9.00;99.90;;;;;;5126065;28;20039;-51
2023/11/06 00:10:59;;;;;;;11.07;3.28;;;9.00;99.90;;;;;;5127503;28;20046;-51
2023/11/06 00:13:25;;;;;;;16.88;3.45;;;8.90;99.90;;;;;;5129856;28;20166;-52
2023/11/06 00:15:50;;;;;;;12.23;3.00;;;8.90;99.90;;;;;;5129162;28;20081;-51
2023/11/06 00:18:16;;;;;;;10.18;3.33;;;9.00;99.90;;;;;;5129918;28;20285;-51
2023/11/06 00:20:43;;;;;;;11.82;3.22;;;9.00;99.90;;;;;;5130040;28;20168;-51
2023/11/06 00:23:08;;;;;;;7.78;2.58;;;9.00;99.90;;;;;;5129963;28;20042;-51
2023/11/06 00:25:34;;;;;;;6.80;2.60;;;9.00;99.90;;;;;;5129851;28;20028;-51
2023/11/06 00:28:00;;;;;;;12.23;2.20;;;9.00;99.90;;;;;;5129846;28;20087;-50
2023/11/06 00:30:26;;;;;;;7.40;1.98;;;9.00;99.90;;;;;;5128617;28;20035;-51
2023/11/06 00:32:51;;;;;;;8.32;1.92;;;9.00;99.90;;;;;;5129779;28;20062;-51
2023/11/06 00:35:17;;;;;;;8.95;1.85;;;9.10;99.90;;;;;;5129578;28;20322;-51
2023/11/06 00:37:43;;;;;;;7.05;1.90;;;9.10;99.90;;;;;;5129497;28;20027;-51
2023/11/06 00:40:09;;;;;;;10.70;1.85;;;9.00;99.90;;;;;;5129746;28;20055;-51
2023/11/06 00:42:35;;;;;;;9.50;1.73;;;9.00;99.90;;;;;;5129540;28;20031;-52
2023/11/06 00:45:02;;;;;;;6.43;2.00;;;9.00;99.90;;;;;;5128455;28;20034;-51
2023/11/06 00:47:28;;;;;;;9.02;1.90;;;9.00;99.90;;;;;;5128390;28;20302;-48
2023/11/06 00:49:53;;;;;;;8.82;2.28;;;9.00;99.90;;;;;;5129486;28;20039;-48
2023/11/06 00:52:19;;;;;;;12.38;1.92;;;9.00;99.90;;;;;;5129444;28;20054;-50
2023/11/06 00:54:45;;;;;;;7.97;1.67;;;8.90;99.90;;;;;;5129448;28;20039;-51
2023/11/06 00:57:11;;;;;;;10.02;2.58;;;8.90;99.90;;;;;;5129344;28;20019;-48
2023/11/06 00:59:36;;;;;;;9.88;1.85;;;8.90;99.90;;;;;;5128156;28;20035;-51
2023/11/06 01:02:03;;;;;;;8.65;1.63;;;8.90;99.90;;;;;;5129199;28;20023;-51
2023/11/06 01:04:29;;;;;;;14.98;2.20;;;8.90;99.90;;;;;;5129136;28;20047;-49
2023/11/06 01:06:54;;;;;;;8.48;1.83;;;9.00;99.90;;;;;;5128749;28;20229;-50
2023/11/06 01:09:21;;;;;;;7.40;1.77;;;9.00;99.90;;;;;;5128837;28;20047;-48
2023/11/06 01:11:49;;;;;;;9.60;1.85;;;9.00;99.90;;;;;;5128772;28;20019;-48
2023/11/06 01:14:18;;;;;;;10.40;1.70;;;9.10;99.90;;;;;;5128526;28;20030;-50
2023/11/06 01:16:43;;;;;;;10.25;1.98;;;9.10;99.90;;;;;;5128987;28;20039;-48
2023/11/06 01:19:09;;;;;;;8.32;2.63;;;9.20;99.90;;;;;;5128911;28;20035;-48
2023/11/06 01:21:35;;;;;;;9.57;2.53;;;9.20;99.90;;;;;;5109640;28;20032;-50
2023/11/06 01:24:00;;;;;;;13.57;2.80;;;9.20;99.90;;;;;;5128439;28;20031;-51
2023/11/06 01:26:26;;;;;;;8.20;1.80;;;9.20;99.90;;;;;;5128687;28;20291;-51
2023/11/06 01:28:52;;;;;;;7.43;2.35;;;9.20;99.90;;;;;;5128715;28;20027;-51
2023/11/06 01:31:17;;;;;;;9.25;1.58;;;9.20;99.90;;;;;;5128279;28;20181;-51
2023/11/06 01:33:44;;;;;;;9.40;2.40;;;9.20;99.90;;;;;;5128406;28;20020;-49
2023/11/06 01:36:10;;;;;;;9.32;2.38;;;9.30;99.90;;;;;;5127402;28;20038;-49
2023/11/06 01:38:36;;;;;;;12.77;2.90;;;9.30;99.90;;;;;;5128510;28;20073;-51
2023/11/06 01:41:03;;;;;;;11.85;2.00;;;9.30;99.90;;;;;;5128510;28;20016;-48
2023/11/06 01:43:29;;;;;;;10.98;2.00;;;9.40;99.90;;;;;;5128591;28;20031;-49
2023/11/06 01:45:54;;;;;;;8.40;2.10;;;9.30;99.90;;;;;;5128081;28;20276;-47
2023/11/06 01:48:24;;;;;;;11.93;2.10;;;9.30;99.90;;;;;;5128355;28;20031;-50
2023/11/06 01:50:50;;;;;;;11.43;2.28;;;9.30;99.90;;;;;;5127252;28;20181;-50
2023/11/06 01:53:16;;;;;;;12.70;2.58;;;9.30;99.90;;;;;;5127052;28;20034;-50
2023/11/06 01:55:45;;;;;;;6.68;1.88;;;9.30;99.90;;;;;;5109952;28;20223;-51
2023/11/06 01:58:14;;;;;;;12.02;2.20;;;9.30;99.90;;;;;;5127145;28;20028;-50
2023/11/06 02:00:39;;;;;;;9.45;1.92;;;9.30;99.90;;;;;;5127199;28;20292;-50
2023/11/06 02:03:06;;;;;;;9.90;2.00;;;9.40;99.90;;;;;;5127503;28;20042;-50
2023/11/06 02:05:31;;;;;;;13.85;1.85;;;9.40;99.90;;;;;;5127957;28;20041;-51
2023/11/06 02:07:57;;;;;;;9.82;1.85;;;9.40;99.90;;;;;;5126860;28;20208;-51
2023/11/06 02:10:23;;;;;;;6.75;1.40;;;9.50;99.90;;;;;;5126912;28;20312;-51
2023/11/06 02:12:49;;;;;;;11.02;1.80;;;9.50;99.90;;;;;;5127909;28;20067;-52
2023/11/06 02:15:14;;;;;;;10.27;2.00;;;9.60;99.90;;;;;;5127884;28;20177;-54
2023/11/06 02:17:43;;;;;;;10.27;1.75;;;9.60;99.90;;;;;;5127480;28;20038;-55
2023/11/06 02:20:12;;;;;;;11.07;1.65;;;9.60;99.90;;;;;;5126638;28;20094;-53
2023/11/06 02:22:42;;;;;;;9.33;1.83;;;9.60;99.90;;;;;;5126579;28;20039;-53
2023/11/06 02:25:08;;;;;;;7.72;1.77;;;9.60;99.90;;;;;;5127625;28;20421;-54
2023/11/06 02:27:33;;;;;;;10.60;2.05;;;9.60;99.90;;;;;;5127741;28;20028;-53
2023/11/06 02:29:59;;;;;;;7.45;1.45;;;9.60;99.90;;;;;;5127428;28;20272;-52
2023/11/06 02:32:25;;;;;;;4.95;1.30;;;9.70;99.90;;;;;;5127533;28;20028;-52
2023/11/06 02:34:50;;;;;;;6.65;1.58;;;9.70;99.90;;;;;;5127009;28;20087;-53
2023/11/06 02:37:17;;;;;;;7.18;1.52;;;9.80;99.90;;;;;;5127057;28;20180;-52
2023/11/06 02:39:43;;;;;;;8.05;1.67;;;9.80;99.90;;;;;;5127287;28;20039;-53
2023/11/06 02:42:09;;;;;;;8.75;1.50;;;9.80;99.90;;;;;;5127162;28;20031;-53
2023/11/06 02:44:35;;;;;;;12.50;2.05;;;9.80;99.90;;;;;;5127190;28;20038;-53
2023/11/06 02:47:01;;;;;;;9.88;1.40;;;9.90;99.90;;;;;;5126145;28;20214;-53
2023/11/06 02:49:26;;;;;;;10.38;1.88;;;9.80;99.90;;;;;;5126808;28;20316;-54
2023/11/06 02:51:52;;;;;;;10.90;1.70;;;9.90;99.90;;;;;;5126034;28;20023;-52
2023/11/06 02:54:24;;;;;;;10.90;2.13;;;10.00;99.90;;;;;;5126966;28;20027;-53
2023/11/06 02:56:50;;;;;;;10.52;2.03;;;10.00;99.90;;;;;;5127004;28;20019;-52
2023/11/06 02:59:16;;;;;;;9.00;1.63;;;10.00;99.90;;;;;;5126597;28;20099;-52
2023/11/06 03:01:42;;;;;;;11.40;2.33;;;10.00;99.90;;;;;;5126033;28;20039;-53
2023/11/06 03:04:12;;;;;;;10.75;1.92;;;10.10;99.90;;;;;;5126722;28;20030;-52
2023/11/06 03:06:38;;;;;;;9.70;2.00;;;10.00;99.90;;;;;;5126501;28;20052;-52
2023/11/06 03:09:05;;;;;;;12.98;1.95;;;10.00;99.90;;;;;;5125497;28;20133;-53
2023/11/06 03:11:32;;;;;;;7.50;1.80;;;10.00;99.90;;;;;;5126628;28;20047;-53
2023/11/06 03:13:57;;;;;;;12.48;1.85;;;10.00;99.90;;;;;;5126645;28;20050;-53
2023/11/06 03:16:23;;;;;;;12.65;2.42;;;10.10;99.90;;;;;;5125702;28;20035;-53
2023/11/06 03:18:49;;;;;;;13.77;2.83;;;10.10;99.90;;;;;;5126689;28;20015;-50
2023/11/06 03:21:15;;;;;;;12.15;2.00;;;10.10;99.90;;;;;;5126190;28;20031;-53
2023/11/06 03:23:40;;;;;;;11.40;2.30;;;10.10;99.90;;;;;;5126670;28;20173;-55
2023/11/06 03:26:06;;;;;;;22.70;4.18;;;10.10;99.90;;;;;;5126418;28;20024;-53
2023/11/06 03:28:32;;;;;;;13.85;1.98;;;10.10;99.90;;;;;;5126538;28;20211;-53
2023/11/06 03:30:58;;;;;;;13.13;1.67;;;10.10;99.90;;;;;;5126388;28;20027;-54
2023/11/06 03:33:24;;;;;;;9.75;1.60;;;10.20;99.90;;;;;;5126158;28;20207;-53
2023/11/06 03:35:50;;;;;;;13.32;2.17;;;10.20;99.90;;;;;;5126148;28;20039;-53
2023/11/06 03:38:16;;;;;;;12.27;1.60;;;10.10;99.90;;;;;;5125169;28;20031;-53
2023/11/06 03:40:42;;;;;;;11.27;2.00;;;10.20;99.90;;;;;;5126336;28;20023;-52
2023/11/06 03:43:07;;;;;;;9.13;1.85;;;10.10;99.90;;;;;;5126335;28;20181;-54
2023/11/06 03:45:33;;;;;;;9.48;1.70;;;10.10;99.90;;;;;;5125201;28;20040;-53
2023/11/06 03:47:59;;;;;;;13.60;1.95;;;10.10;99.90;;;;;;5126267;28;20034;-53
2023/11/06 03:50:25;;;;;;;10.18;2.42;;;10.10;99.90;;;;;;5126119;28;20027;-53
2023/11/06 03:52:50;;;;;;;10.60;1.65;;;10.20;99.90;;;;;;5125759;28;20031;-54
2023/11/06 03:55:16;;;;;;;17.23;1.90;;;10.20;99.90;;;;;;5125876;28;20019;-53
2023/11/06 03:57:42;;;;;;;12.18;2.08;;;10.10;99.90;;;;;;5126134;28;20081;-54
2023/11/06 04:00:10;;;;;;;15.60;2.03;;;10.10;99.90;;;;;;5124996;28;20166;-54
2023/11/06 04:02:36;;;;;;;7.65;1.67;;;10.10;99.90;;;;;;5125409;28;20342;-53
2023/11/06 04:05:02;;;;;;;13.25;2.03;;;10.10;99.90;;;;;;5126156;28;20062;-53
2023/11/06 04:07:28;;;;;;;13.80;2.30;;;10.10;99.90;;;;;;5125747;28;20048;-52
2023/11/06 04:09:55;;;;;;;8.80;1.40;;;10.00;99.90;;;;;;5125889;28;20331;-52
2023/11/06 04:12:22;;;;;;;12.70;1.75;;;10.10;99.90;;;;;;5125970;28;20072;-53
2023/11/06 04:14:53;;;;;;;7.50;1.50;;;10.00;99.90;;;;;;5126134;28;20265;-54
2023/11/06 04:17:19;;;;;;;9.77;1.60;;;9.90;99.90;;;;;;5124889;28;20151;-53
2023/11/06 04:19:45;;;;;;;10.15;1.73;;;9.90;99.90;;;;;;5125036;28;20088;-52
2023/11/06 04:22:10;;;;;;;10.50;1.98;;;9.90;99.90;;;;;;5125802;28;20031;-53
2023/11/06 04:24:36;;;;;;;9.98;1.50;;;9.90;99.90;;;;;;5125588;28;20027;-54
2023/11/06 04:27:02;;;;;;;11.00;1.60;;;9.80;99.90;;;;;;5124704;28;20091;-53
2023/11/06 04:29:27;;;;;;;11.00;1.92;;;9.80;99.90;;;;;;5125132;28;20099;-54
2023/11/06 04:31:53;;;;;;;9.88;1.77;;;9.80;99.90;;;;;;5125746;28;20020;-53
2023/11/06 04:34:18;;;;;;;4.72;1.33;;;9.80;99.90;;;;;;5124684;28;20034;-53
2023/11/06 04:36:44;;;;;;;11.75;2.33;;;9.80;99.90;;;;;;5125850;28;20054;-53
2023/11/06 04:39:10;;;;;;;12.85;2.40;;;9.80;99.90;;;;;;5125926;28;20293;-53
2023/11/06 04:41:39;;;;;;;7.75;1.55;;;9.80;99.90;;;;;;5125483;28;20324;-52
2023/11/06 04:44:05;;;;;;;7.25;1.75;;;9.90;99.90;;;;;;5124694;28;20015;-50
2023/11/06 04:46:31;;;;;;;8.10;2.13;;;9.90;99.90;;;;;;5125741;28;20170;-51
2023/11/06 04:48:57;;;;;;;9.45;2.00;;;9.90;99.90;;;;;;5125618;28;20051;-54
2023/11/06 04:51:22;;;;;;;12.90;2.30;;;10.00;99.90;;;;;;5125584;28;20277;-53
2023/11/06 04:53:48;;;;;;;10.63;1.60;;;10.00;99.90;;;;;;5125500;28;20022;-54
2023/11/06 04:56:14;;;;;;;15.15;2.30;;;10.00;99.90;;;;;;5125323;28;20035;-53
2023/11/06 04:58:39;;;;;;;10.32;1.92;;;10.00;99.90;;;;;;5129314;28;20024;-54
2023/11/06 05:01:31;;;;;;;8.75;1.40;;;10.00;99.90;;;;;;5128350;28;20084;-57
2023/11/06 05:03:57;;;;;;;10.40;1.52;;;10.00;99.90;;;;;;5128129;28;20282;-54
2023/11/06 05:06:22;;;;;;;12.20;1.70;;;10.00;99.90;;;;;;5128859;28;20048;-50
2023/11/06 05:08:48;;;;;;;8.48;1.92;;;10.00;99.90;;;;;;5129040;28;20133;-51
2023/11/06 05:11:13;;;;;;;10.38;2.67;;;10.00;99.90;;;;;;5129035;28;20088;-53
2023/11/06 05:13:39;;;;;;;12.05;1.90;;;10.00;99.90;;;;;;5127684;28;20016;-54
2023/11/06 05:16:05;;;;;;;7.88;1.70;;;9.90;99.90;;;;;;5128871;28;20072;-53
2023/11/06 05:18:31;;;;;;;16.63;2.40;;;10.00;99.90;;;;;;5129029;28;20023;-54
2023/11/06 05:20:56;;;;;;;12.77;2.13;;;10.00;99.90;;;;;;5128877;28;20023;-54
2023/11/06 05:23:22;;;;;;;6.97;1.98;;;10.00;99.90;;;;;;5128822;28;20053;-54
2023/11/06 05:25:48;;;;;;;10.00;1.60;;;10.00;99.90;;;;;;5128754;28;20108;-52
2023/11/06 05:28:14;;;;;;;7.03;1.42;;;10.00;99.90;;;;;;5128317;28;20027;-53
2023/11/06 05:30:39;;;;;;;8.63;1.30;;;10.00;99.90;;;;;;5128686;28;20028;-54
2023/11/06 05:33:05;;;;;;;13.60;1.95;;;10.00;99.90;;;;;;5128666;28;20076;-52
2023/11/06 05:35:32;;;;;;;11.02;1.40;;;10.00;99.90;;;;;;5128317;28;20310;-54
2023/11/06 05:37:58;;;;;;;7.43;1.58;;;10.10;99.90;;;;;;5128716;28;20027;-53
2023/11/06 05:40:23;;;;;;;9.68;1.55;;;10.10;99.90;;;;;;5127510;28;20293;-54
2023/11/06 05:42:49;;;;;;;7.47;1.80;;;10.10;99.90;;;;;;5127472;28;20062;-52
2023/11/06 05:45:15;;;;;;;16.45;2.42;;;10.10;99.90;;;;;;5128260;28;20034;-53
2023/11/06 05:47:41;;;;;;;10.10;1.70;;;10.10;99.90;;;;;;5128462;28;20035;-53
2023/11/06 05:50:07;;;;;;;10.57;1.60;;;10.00;99.90;;;;;;5128209;28;20040;-53
2023/11/06 05:52:33;;;;;;;11.00;1.63;;;10.00;99.90;;;;;;5128411;28;20053;-50
2023/11/06 05:54:59;;;;;;;9.30;1.65;;;10.00;99.90;;;;;;5128141;28;20035;-53
2023/11/06 05:57:24;;;;;;;7.20;1.50;;;10.00;99.90;;;;;;5128083;28;20047;-52
2023/11/06 05:59:50;;;;;;;8.45;1.75;;;10.00;99.90;;;;;;5127688;28;20251;-53
2023/11/06 06:02:16;;;;;;;6.50;1.40;;;10.00;99.90;;;;;;5127872;28;20065;-54
2023/11/06 06:04:41;;;;;;;8.85;2.17;;;10.00;99.90;;;;;;5128038;28;20031;-53
2023/11/06 06:07:07;;;;;;;7.63;1.40;;;10.00;99.90;;;;;;5127623;28;20039;-54
2023/11/06 06:09:33;;;;;;;12.90;2.08;;;9.90;99.90;;;;;;5127025;28;20089;-54
2023/11/06 06:11:59;;;;;;;12.48;1.40;;;9.90;99.90;;;;;;5127627;28;20030;-53
2023/11/06 06:14:25;;;;;;;16.42;1.90;;;9.90;99.90;;;;;;5126653;28;20030;-52
2023/11/06 06:16:51;;;;;;;14.40;1.80;;;10.00;99.90;;;;;;5127375;28;20027;-52
2023/11/06 06:19:18;;;;;;;11.20;1.70;;;10.00;99.90;;;;;;5126516;28;20088;-53
2023/11/06 06:21:44;;;;;;;12.10;1.90;;;10.00;99.90;;;;;;5127819;28;20047;-54
2023/11/06 06:24:10;;;;;;;9.55;2.13;;;10.00;99.90;;;;;;5127514;28;20052;-53
2023/11/06 06:26:39;;;;;;;12.45;1.85;;;10.00;99.90;;;;;;5127655;28;20100;-53
2023/11/06 06:29:05;;;;;;;17.02;2.10;;;10.00;99.90;;;;;;5127531;28;20024;-53
2023/11/06 06:31:31;;;;;;;14.00;1.85;;;10.10;99.90;;;;;;5126474;28;20311;-53
2023/11/06 06:33:58;;;;;;;11.82;1.92;;;10.10;99.90;;;;;;5127299;28;20027;-53
2023/11/06 06:36:24;;;;;;;13.02;1.50;;;10.10;99.90;;;;;;5126466;28;20026;-53
2023/11/06 06:38:50;;;;;;;13.73;2.03;;;10.20;99.90;;;;;;5127235;28;20027;-54
2023/11/06 06:41:16;;;;;;;11.20;1.83;;;10.20;99.90;;;;;;5126856;28;20034;-54
2023/11/06 06:43:41;;;;;;;13.35;2.20;;;10.10;99.90;;;;;;5127467;28;20217;-53
2023/11/06 06:46:07;;;;;;;13.05;2.67;;;10.10;99.90;;;;;;5127006;28;20028;-54
2023/11/06 06:48:33;;;;;;;8.93;1.85;;;10.10;99.90;;;;;;5125875;28;20226;-53
2023/11/06 06:50:58;;;;;;;10.48;1.90;;;10.10;99.90;;;;;;5127115;28;20032;-54
2023/11/06 06:53:24;;;;;;;11.18;1.92;;;10.20;99.90;;;;;;5125757;28;20027;-53
2023/11/06 06:55:50;;;;;;;13.88;2.10;;;10.20;99.90;;;;;;5126920;28;20054;-53
2023/11/06 06:58:16;;;;;;;11.23;1.85;;;10.20;99.90;;;;;;5126924;28;20039;-53
2023/11/06 07:00:45;;;;;;;8.45;1.95;;;10.20;99.90;;;;;;5126992;28;20028;-54
2023/11/06 07:03:11;;;;;;;10.65;2.80;;;10.10;99.90;;;;;;5126327;28;20327;-54
2023/11/06 07:05:38;;;;;;;11.93;2.85;;;10.20;99.90;;;;;;5126662;28;20031;-52
2023/11/06 07:08:04;;;;;;;11.18;2.05;;;10.10;99.90;;;;;;5126534;28;20123;-53
2023/11/06 07:10:30;;;;;;;12.55;1.55;;;10.10;99.90;;;;;;5126665;28;20031;-53
2023/11/06 07:12:57;;;;;;;7.97;2.30;;;10.20;99.90;;;;;;5126738;28;20177;-54
2023/11/06 07:15:25;;;;;;;11.98;2.42;;;10.20;99.90;;;;;;5126743;28;20055;-53
2023/11/06 07:17:52;;;;;;;9.50;1.80;;;10.10;99.90;;;;;;5126642;28;20051;-54
2023/11/06 07:20:17;;;;;;;11.77;1.88;;;10.10;99.90;;;;;;5126527;28;20027;-53
2023/11/06 07:22:43;;;;;;;14.07;2.58;;;10.10;99.90;;;;;;5126097;28;20226;-54
2023/11/06 07:25:09;;;;;;;11.77;2.03;;;10.20;99.90;;;;;;5126559;28;20189;-54
2023/11/06 07:27:35;;;;;;;13.30;2.00;;;10.10;99.90;;;;;;5126492;28;20119;-54
2023/11/06 07:30:01;;;;;;;10.55;2.15;;;10.10;99.90;;;;;;5126272;28;20322;-53
2023/11/06 07:32:26;;;;;;;5.60;1.38;;;10.10;99.90;;;;;;5126297;28;20080;-53
2023/11/06 07:34:52;;;;;;;13.60;2.55;;;10.10;99.90;;;;;;5125191;28;20020;-54
2023/11/06 07:37:18;;;;;;;10.50;2.10;;;10.10;99.90;;;;;;5125015;28;20052;-54
2023/11/06 07:39:43;;;;;;;7.85;1.27;;;10.10;99.90;;;;;;5125333;28;20042;-53
2023/11/06 07:42:12;;;;;;;10.15;1.58;;;10.10;99.90;;;;;;5125105;28;20027;-51
2023/11/06 07:44:41;;;;;;;8.03;1.77;;;10.10;99.90;;;;;;5126239;28;20289;-53
2023/11/06 07:47:08;;;;;;;14.30;2.13;;;10.10;99.90;;;;;;5126180;28;20138;-51
2023/11/06 07:49:34;;;;;;;6.82;1.60;;;10.10;99.90;;;;;;5126011;28;20027;-50
2023/11/06 07:52:06;;;;;;;11.15;1.70;;;10.20;99.90;;;;;;5125467;28;20040;-53
2023/11/06 07:54:32;;;;;;;9.73;1.70;;;10.20;99.90;;;;;;5125169;28;20292;-52
2023/11/06 07:56:58;;;;;;;4.68;1.38;;;10.20;99.90;;;;;;5126204;28;20035;-53
2023/11/06 07:59:23;;;;;;;10.60;1.67;;;10.20;99.90;;;;;;5125532;28;20031;-53
2023/11/06 08:01:49;;;;;;;9.05;2.17;;;10.20;99.90;;;;;;5125926;28;20080;-52
2023/11/06 08:04:16;;;;;;;13.70;2.90;;;10.30;99.90;;;;;;5126087;28;20050;-53
2023/11/06 08:06:42;;;;;;;7.32;1.35;;;10.30;99.90;;;;;;5124398;28;20051;-54
2023/11/06 08:09:09;;;;;;;8.65;1.63;;;10.30;99.90;;;;;;5125978;28;20023;-52
2023/11/06 08:11:35;;;;;;;8.95;1.98;;;10.30;99.90;;;;;;5125121;28;20073;-52
2023/11/06 08:14:02;;;;;;;10.77;2.53;;;10.30;99.90;;;;;;5125732;28;20273;-53
2023/11/06 08:16:37;;;;;;;7.22;1.63;;;10.30;99.90;;;;;;5125914;28;20173;-53
2023/11/06 08:19:03;;;;;;;14.00;3.30;;;10.40;99.90;;;;;;5125841;28;20023;-49
2023/11/06 08:21:30;;;;;;;11.48;3.03;;;10.30;99.90;;;;;;5125884;28;20063;-52
2023/11/06 08:23:56;;;;;;;12.93;2.78;;;10.30;99.90;;;;;;5124647;28;20188;-51
2023/11/06 08:26:21;;;;;;;8.27;1.80;;;10.30;99.90;;;;;;5125911;28;20036;-51
2023/11/06 08:28:47;;;;;;;5.05;1.55;;;10.30;99.90;;;;;;5125900;28;20181;-50
2023/11/06 08:31:16;;;;;;;9.32;1.45;;;10.30;99.90;;;;;;5126519;28;20058;-53
2023/11/06 08:33:42;;;;;;;6.73;1.57;;;10.30;99.90;;;;;;5129734;28;20044;-53
2023/11/06 08:36:08;;;;;;;8.25;1.52;;;10.30;99.90;;;;;;5128592;28;20020;-52
2023/11/06 08:38:34;;;;;;;7.13;2.08;;;10.30;99.90;;;;;;5129250;28;20019;-53
2023/11/06 08:41:02;;;;;;;10.50;1.95;;;10.30;99.90;;;;;;5129568;28;20032;-50
2023/11/06 08:43:27;;;;;;;7.95;1.58;;;10.30;99.90;;;;;;5129692;28;20027;-54
2023/11/06 08:45:53;;;;;;;9.30;1.98;;;10.30;99.90;;;;;;5129054;28;20326;-52
2023/11/06 08:48:19;;;;;;;7.95;1.50;;;10.30;99.90;;;;;;5128099;28;20031;-50
2023/11/06 08:50:45;;;;;;;10.48;1.30;;;10.40;99.90;;;;;;5129455;28;20088;-51
2023/11/06 08:53:10;;;;;;;8.68;1.35;;;10.40;99.90;;;;;;5129366;28;20032;-51
2023/11/06 08:55:36;;;;;;;5.22;1.20;;;10.40;99.90;;;;;;5128853;28;20027;-53
2023/11/06 08:58:02;;;;;;;5.63;1.05;;;10.40;99.90;;;;;;5128910;28;20026;-53
2023/11/06 09:00:29;;;;;;;5.10;1.20;;;10.50;99.90;;;;;;5129200;28;20016;-53
2023/11/06 09:02:55;;;;;;;5.40;1.27;;;10.50;99.90;;;;;;5127975;28;20094;-51
2023/11/06 09:05:21;;;;;;;11.93;1.92;;;10.50;99.90;;;;;;5128850;28;20027;-50
2023/11/06 09:07:47;;;;;;;9.52;1.58;;;10.60;99.90;;;;;;5127946;28;20046;-51
2023/11/06 09:10:14;;;;;;;12.45;2.13;;;10.60;99.90;;;;;;5127654;28;20027;-53
2023/11/06 09:12:39;;;;;;;7.63;1.33;;;10.60;99.90;;;;;;5128908;28;20072;-52
2023/11/06 09:15:06;;;;;;;7.28;1.40;;;10.60;99.90;;;;;;5128512;28;20083;-54
2023/11/06 09:17:32;;;;;;;8.43;1.63;;;10.50;99.90;;;;;;5128773;28;20031;-53
2023/11/06 09:19:57;;;;;;;8.82;1.33;;;10.50;99.90;;;;;;5128659;28;20106;-54
2023/11/06 09:22:23;;;;;;;8.20;1.58;;;10.50;99.90;;;;;;5128708;28;20091;-54
2023/11/06 09:24:49;;;;;;;8.30;1.60;;;10.50;99.90;;;;;;5128769;28;20035;-52
2023/11/06 09:27:14;;;;;;;11.68;1.60;;;10.50;99.90;;;;;;5128124;28;20046;-54
2023/11/06 09:29:40;;;;;;;9.38;1.40;;;10.50;99.90;;;;;;5128203;28;20178;-53
2023/11/06 09:32:06;;;;;;;11.68;1.52;;;10.40;99.90;;;;;;5128320;28;20024;-53
2023/11/06 09:34:32;;;;;;;10.13;2.28;;;10.40;99.90;;;;;;5127390;28;20057;-54
2023/11/06 09:36:57;;;;;;;9.82;1.55;;;10.40;99.90;;;;;;5128364;28;20034;-54
2023/11/06 09:39:23;;;;;;;9.50;1.55;;;11.20;99.90;;;;;;5128529;28;20065;-51
2023/11/06 09:41:49;;;;;;;4.78;1.10;;;11.10;99.90;;;;;;5127948;28;20177;-54
2023/11/06 09:44:16;;;;;;;15.02;1.95;;;10.90;99.90;;;;;;5125602;28;20197;-53
2023/11/06 09:46:41;;;;;;;11.52;1.45;;;10.80;99.90;;;;;;5128478;28;20024;-53
2023/11/06 09:49:14;;;;;;;7.53;1.80;;;10.70;99.90;;;;;;5127431;28;20120;-53
2023/11/06 09:51:40;;;;;;;11.00;2.60;;;10.70;99.90;;;;;;5128032;28;20277;-53
2023/11/06 09:54:10;;;;;;;12.13;1.60;;;10.80;99.90;;;;;;5127071;28;20303;-53
2023/11/06 09:56:35;;;;;;;6.72;1.33;;;10.80;99.90;;;;;;5127044;28;20064;-54
2023/11/06 09:59:02;;;;;;;7.72;1.45;;;10.80;99.90;;;;;;5126970;28;20027;-54
2023/11/06 10:01:28;;;;;;;5.72;1.33;;;10.80;99.90;;;;;;5127665;28;20200;-54
2023/11/06 10:03:56;;;;;;;6.95;1.85;;;10.80;99.90;;;;;;5126753;28;20030;-54
2023/11/06 10:06:22;;;;;;;5.22;1.13;;;10.80;99.90;;;;;;5126515;28;20085;-53
2023/11/06 10:08:48;;;;;;;5.20;1.00;;;10.80;99.90;;;;;;5127844;28;20023;-53
2023/11/06 10:11:21;;;;;;;5.38;1.20;;;10.80;99.90;;;;;;5127309;28;20043;-52
2023/11/06 10:13:53;;;;;;;8.23;1.30;;;10.90;99.90;;;;;;5127066;28;20257;-53
2023/11/06 10:16:22;;;;;;;8.50;1.85;;;11.00;99.90;;;;;;5126608;28;20077;-53
2023/11/06 10:18:51;;;;;;;8.90;1.58;;;11.00;99.90;;;;;;5127929;28;20316;-50
2023/11/06 10:21:29;;;;;;;4.57;1.13;;;11.10;99.90;;;;;;5126946;28;20034;-51
2023/11/06 10:24:01;;;;;;;9.45;1.50;;;11.10;99.90;;;;;;5127377;28;20038;-53
2023/11/06 10:26:31;;;;;;;6.85;1.40;;;11.10;99.90;;;;;;5127530;28;20035;-51
2023/11/06 10:29:17;;;;;;;3.93;1.13;;;11.20;99.90;;;;;;5127013;28;20019;-53
2023/11/06 10:31:47;;;;;;;3.15;1.02;;;11.20;99.90;;;;;;5126838;28;20275;-54
2023/11/06 10:34:26;;;;;;;6.78;1.42;;;11.10;99.90;;;;;;5127365;28;20288;-52
2023/11/06 10:37:09;;;;;;;3.55;0.95;;;11.20;99.90;;;;;;5127244;28;20031;-52
2023/11/06 10:39:37;;;;;;;5.57;1.38;;;11.40;99.90;;;;;;5126069;28;20027;-54
2023/11/06 10:42:04;;;;;;;5.25;1.30;;;11.40;99.90;;;;;;5126787;28;20032;-51
2023/11/06 10:44:34;;;;;;;5.97;1.77;;;11.30;99.90;;;;;;5127048;28;20053;-53
2023/11/06 10:47:18;;;;;;;4.88;1.00;;;11.30;99.90;;;;;;5126966;28;20027;-54
2023/11/06 10:49:47;;;;;;;9.65;1.50;;;11.20;99.90;;;;;;5125854;28;20085;-54
2023/11/06 10:52:13;;;;;;;5.25;1.52;;;11.20;99.90;;;;;;5109192;28;20312;-53
2023/11/06 10:54:39;;;;;;;6.93;1.35;;;11.20;99.90;;;;;;5125459;27;20027;-53
2023/11/06 10:57:05;;;;;;;7.90;1.90;;;11.20;99.90;;;;;;5125812;28;20039;-53
2023/11/06 10:59:31;;;;;;;7.47;3.28;;;11.30;99.90;;;;;;5126546;28;20293;-52
2023/11/06 11:01:57;;;;;;;9.35;1.52;;;11.30;99.90;;;;;;5126247;28;20084;-54
2023/11/06 11:04:28;;;;;;;4.78;1.45;;;11.40;99.90;;;;;;5125688;28;20086;-51
2023/11/06 11:06:54;;;;;;;11.05;2.83;;;11.50;99.90;;;;;;5126535;28;20054;-53
2023/11/06 11:09:20;;;;;;;5.05;2.13;;;11.50;99.90;;;;;;5126226;28;20031;-53
2023/11/06 11:11:45;;;;;;;8.27;2.05;;;11.40;99.90;;;;;;5108763;28;20031;-53
2023/11/06 11:14:14;;;;;;;6.10;1.50;;;11.40;99.90;;;;;;5126541;28;20133;-53
2023/11/06 11:16:50;;;;;;;6.60;1.58;;;11.40;99.90;;;;;;5125498;28;20095;-53
2023/11/06 11:19:31;;;;;;;12.38;5.45;;;11.40;99.90;;;;;;5125679;28;20050;-52
2023/11/06 11:22:08;;;;;;;17.17;2.03;;;11.40;99.90;;;;;;5125076;28;20035;-54
2023/11/06 11:24:44;;;;;;;6.78;1.30;;;11.30;99.90;;;;;;5126042;28;20027;-53
2023/11/06 11:27:16;;;;;;;8.45;1.83;;;11.30;99.90;;;;;;5124537;28;20028;-53
2023/11/06 11:29:57;;;;;;;5.63;1.20;;;11.20;99.90;;;;;;5124863;28;20038;-54
2023/11/06 11:32:29;;;;;;;8.02;1.73;;;11.20;99.90;;;;;;5126026;28;20027;-55
2023/11/06 11:34:56;;;;;;;8.68;1.65;;;11.20;99.90;;;;;;5125469;28;20035;-55
2023/11/06 11:37:29;;;;;;;7.75;3.17;;;11.20;99.90;;;;;;5125701;28;20048;-55
2023/11/06 11:39:56;;;;;;;5.88;1.30;;;11.20;99.90;;;;;;5125749;28;20039;-55
2023/11/06 11:42:22;;;;;;;6.72;1.80;;;11.20;99.90;;;;;;5125469;28;20042;-54
2023/11/06 11:44:58;;;;;;;4.32;1.35;;;11.20;99.90;;;;;;5107859;28;20027;-54
2023/11/06 11:47:24;;;;;;;3.80;0.98;;;11.30;99.90;;;;;;5125549;28;20061;-56
2023/11/06 11:49:50;;;;;;;4.30;1.00;;;11.40;99.90;;;;;;5124779;28;20044;-55
2023/11/06 11:52:25;;;;;;;5.15;1.33;;;11.40;99.90;;;;;;5125697;28;20022;-55
2023/11/06 11:54:51;;;;;;;3.78;1.10;;;11.40;99.90;;;;;;5125742;28;20015;-55
2023/11/06 11:57:17;;;;;;;4.22;0.85;;;11.40;99.90;;;;;;5124640;28;20027;-56
2023/11/06 11:59:42;;;;;;;5.53;1.00;;;11.40;99.90;;;;;;5125788;28;20168;-55
2023/11/06 12:02:23;;;;;;;4.50;1.17;;;11.30;99.90;;;;;;5125677;28;20293;-55
2023/11/06 12:04:49;;;;;;;7.90;1.83;;;11.40;99.90;;;;;;5124889;28;20095;-54
2023/11/06 12:07:16;;;;;;;5.68;1.27;;;11.40;99.90;;;;;;5127709;28;20104;-55
2023/11/06 12:09:51;;;;;;;3.13;1.10;;;11.40;99.90;;;;;;5129840;28;20027;-54
2023/11/06 12:12:27;;;;;;;4.93;1.33;;;11.40;99.90;;;;;;5128747;28;20031;-55
2023/11/06 12:14:54;;;;;;;15.40;8.38;;;11.40;99.90;;;;;;5129844;28;20085;-54
2023/11/06 12:17:33;;;;;;;7.47;1.75;;;11.30;99.90;;;;;;5129009;28;20095;-50
2023/11/06 12:20:00;;;;;;;9.23;3.07;;;11.30;99.90;;;;;;5128694;28;20043;-54
2023/11/06 12:22:27;;;;;;;8.77;2.15;;;11.20;99.90;;;;;;5129705;28;20282;-54
2023/11/06 12:24:54;;;;;;;12.70;4.53;;;11.20;99.90;;;;;;5129571;28;20015;-54
2023/11/06 12:27:20;;;;;;;9.38;3.10;;;11.10;99.90;;;;;;5129395;28;20027;-55
2023/11/06 12:29:46;;;;;;;7.22;1.83;;;11.00;99.90;;;;;;5129333;28;20103;-54
2023/11/06 12:32:22;;;;;;;7.93;2.17;;;10.90;99.90;;;;;;5129235;28;20019;-54
2023/11/06 12:34:48;;;;;;;8.75;4.80;;;10.90;99.90;;;;;;5129597;28;20028;-54
2023/11/06 12:37:14;;;;;;;10.75;3.20;;;11.00;99.90;;;;;;5128036;28;20285;-53
2023/11/06 12:39:40;;;;;;;11.85;2.50;;;10.90;99.90;;;;;;5128353;28;20031;-53
2023/11/06 12:42:06;;;;;;;10.02;2.10;;;10.90;99.90;;;;;;5129150;28;20038;-54
2023/11/06 12:44:41;;;;;;;5.47;1.90;;;10.90;99.90;;;;;;5128237;28;20131;-53